Loisir ou Compétition : Rejoignez un Club de la Fédération

Résultats

GRAND PRIX VITAM "QUALIF COUPE FEDERATION"

GRAND BORNAND

GS Hommes

Jury de Compétition

Délégué Technique :
TOURNIER LAURENT (MB)
Arbitre :
 
Assistant :
 
Dir. Epreuve :
HUDRY CLEMENT (MB)

Caractéristiques de la Piste

Piste :
MAROLY
Départ :
1700
Arrivée :
1450
Dénivelé :
250
Homologation :
2643/12/10

Manche 1

Nombre de Portes :
33
Heure de Départ :
10h15
Traceur :
MISSILLIER SEBASTIEN (MB)
Ouvreurs A :
MISSILLIER JULES (MB)
Ouvreurs B :
BASTARD ROSSET LEON (MB)
Ouvreurs C :
 
Ouvreurs D :
 
Ouvreurs E :
 
Temps :
beau
Neige :
froide

Manche 2

Nombre de Portes :
32
Heure de Départ :
12H45
Traceur :
HUDRY CLEMENT (MB)
Ouvreurs A :
MISSILLIER JULES (MB)
Ouvreurs B :
BASTARD ROSSET LEON (MB)
Ouvreurs C :
 
Ouvreurs D :
 
Ouvreurs E :
 
Température Départ :
-05
Température Arrivée :
-04

Pénalité Appliquée :
71.7300

Catégorie :
U18->Mas
Clt Dos Clt/Cat Code An Nom Prénom Com Club Tps M1 Tps M2 Tps Tot Pts
Classés
1 63 1/U18 FFS2648711 2003 COLLOMB PATTON ENZO MB CS LA CLUSAZ 47.72 47.47 1:35.19 71.73
2 98 1/U21 FFS2648807 2000 REYNAUD ROBIN MB ANNECY SEMNO 46.68 49.09 1:35.77 77.88
3 57 2/U18 FFS2652621 2002 GOUIFFES ATHAN MB SC GD BORNAN 47.52 49.47 1:36.99 90.83
4 58 3/U18 FFS2652214 2002 THIENNARD THEO MB SC GD BORNAN 47.31 49.75 1:37.06 91.57
5 62 2/U21 FFS2639770 2000 PERRILLAT MERCEROT SIMON MB SC GD BORNAN 48.06 49.20 1:37.26 93.69
6 66 4/U18 FFS2651718 2002 PERRILLAT MERCEROT ADRIEN MB SC GD BORNAN 48.49 48.93 1:37.42 95.39
7 68 5/U18 FFS2668248 2003 GESSAT NATAN MB CLUSES COMPE 48.72 48.76 1:37.48 96.03
8 166 1/U30 FFS2626267 1998 MARULIER LUCAS MB CS MANIGOD 47.26 50.24 1:37.50 96.24
9 103 6/U18 FFS2670074 2003 BOGET THEO MB ESF CLUSAZ ( 47.11 50.44 1:37.55 96.77
10 67 3/U21 FFS2646109 2001 VIALLET COLIN MB SC GD BORNAN 47.61 50.09 1:37.70 98.36
11 128 4/U21 FFS2640011 2001 BAUD TOM MB CS CHAMONIX 48.14 49.64 1:37.78 99.21
12 73 5/U21 FFS2691918 2001 GROSJEAN NINO MB ESF GRAND BO 48.22 49.63 1:37.85 99.95
13 96 7/U18 FFS2675363 2002 ANDREOLETY ROMAIN MB ESF GRAND BO 48.70 49.40 1:38.10 102.61
14 99 8/U18 FFS2687737 2002 TOCHON FERDOLLET AUGUSTIN MB ANNECY SEMNO 47.38 50.99 1:38.37 105.47
15 89 6/U21 FFS2666513 2000 PERNOUD LORIS MB CS LA CLUSAZ 48.74 49.77 1:38.51 106.96
16 124 9/U18 FFS2649828 2002 NICOT ANTHONIN MB COMP SEVRIER 48.85 49.78 1:38.63 108.23
17 56 10/U18 FFS2660818 2002 POCHAT LOUIS MB ANNECY SEMNO 47.82 50.88 1:38.70 108.97
18 158 7/U21 FFS2652756 2000 MOULLIER MATHIEU MB CS CHAMONIX 48.90 49.95 1:38.85 110.56
19 111 2/U30 FFS2692632 1998 GUERRAZ THOMAS MB SC GD BORNAN 48.28 50.59 1:38.87 110.78
20 77 11/U18 FFS2656052 2003 JANET LEON MB COMP SEVRIER 49.11 49.95 1:39.06 112.79
21 69 12/U18 FFS2659344 2002 TETU GUILLAUME MB CLUSES COMPE 49.35 49.86 1:39.21 114.38
22 151 8/U21 FFS2643834 2001 HUDRY CLERGEON EMMANUEL MB CS LA CLUSAZ 48.78 50.68 1:39.46 117.04
23 156 9/U21 FFS2663202 2001 GOISNARD HUGO MB CLUSES COMPE 49.03 50.66 1:39.69 119.48
24 119 10/U21 FFS2644212 2001 LAMEYRE GABIN MB CS CHAMONIX 49.07 50.65 1:39.72 119.79
25 123 13/U18 FFS2651233 2002 PERRILLAT AMEDE EVAN MB SC GD BORNAN 48.91 51.04 1:39.95 122.24
26 78 11/U21 FFS2647506 2001 DELETRAZ HAROLD MB CS LA CLUSAZ 49.47 50.70 1:40.17 124.57
27 65 14/U18 FFS2651606 2002 ANTHOINE MILHOMME ALBAN MB SC GD BORNAN 49.30 50.93 1:40.23 125.21
28 165 3/U30 FFS2700266 1996 VASSOUT BRETON DOUGLAS MB SC MORZ AVO 49.07 51.18 1:40.25 125.42
29 64 12/U21 FFS2637184 2001 COLLOMB PATTON LUCAS MB CS LA CLUSAZ 49.00 51.31 1:40.31 126.06
30 80 15/U18 FFS2658603 2003 FAVRE FELIX LUCAS MB SC GD BORNAN 49.45 51.14 1:40.59 129.03
31 118 4/U30 FFS2678396 1995 CURIEN YANN SA CS VAL CENIS 49.61 51.04 1:40.65 129.66
32 81 16/U18 FFS2666509 2002 LEVERT VALENTIN MB COMP SEVRIER 50.01 50.69 1:40.70 130.19
33 60 17/U18 FFS2651289 2002 ROGUE BASILE MB CS MANIGOD 49.20 51.53 1:40.73 130.51
34 70 13/U21 FFS2647996 2001 TOCHON FERDOLLET ISELIN MB SC GD BORNAN 49.84 50.90 1:40.74 130.62
35 76 5/U30 FFS2614093 1995 LAVERGNE ANTHONY MB ASPTT ANNECY 50.19 50.56 1:40.75 130.72
36 88 18/U18 FFS2645441 2002 TAPPY NICOLAS MB CS LA CLUSAZ 49.26 51.58 1:40.84 131.68
37 85 14/U21 FFS2645502 2000 BELLIN CLEMENT MB CS MANIGOD 50.24 50.67 1:40.91 132.42
38 101 15/U21 FFS2640019 2000 CHAUSSIN LOUIS MB CS CHAMONIX 49.66 51.30 1:40.96 132.95
39 59 19/U18 FFS2656501 2002 BALAY AUGUSTIN MB CS LA CLUSAZ 49.65 51.47 1:41.12 134.65
39 115 19/U18 FFS2668860 2002 BETEND HUGO MB SEYTHENEX 49.26 51.86 1:41.12 134.65
41 117 21/U18 FFS2654431 2003 DEMONT ELOI MB CS MANIGOD 49.25 52.03 1:41.28 136.35
42 95 22/U18 FFS2651241 2002 BASTARD ROSSET MAX MB SC GD BORNAN 49.60 51.88 1:41.48 138.47
43 159 16/U21 FFS2635068 2000 SALARIS OLIVIER MB CS CHAMONIX 50.71 50.91 1:41.62 139.95
44 107 17/U21 FFS2641047 2000 REVEILLAUD LENAIC MB SC GD BORNAN 49.68 51.97 1:41.65 140.27
45 155 6/U30 FFS2322654 1992 BUFFARD GUILLAUME MJ LONGCHAUMOIS 50.62 51.06 1:41.68 140.59
46 74 18/U21 FFS2639408 2000 JAFFRY THEO MB ASPTT ANNECY 49.95 51.80 1:41.75 141.33
47 116 23/U18 FFS2656045 2003 REIGNIER MAXENCE MB ANNECY SEMNO 50.21 51.60 1:41.81 141.97
47 132 7/U30 FFS2626868 1998 LOURY LUCAS MB ANNECY SEMNO 49.73 52.08 1:41.81 141.97
49 150 8/U30 FFS2682926 1994 LECANU GUILLAUME MB SC SAMOENS 49.79 52.03 1:41.82 142.08
50 112 24/U18 FFS2658609 2003 PERNET JULES MB SC GD BORNAN 50.44 51.56 1:42.00 143.99
51 75 19/U21 FFS2644695 2001 CHARPENTIER FLORENT MB ASC ANNEMASS 50.82 51.20 1:42.02 144.20
52 160 20/U21 FFS2702129 2000 GILLET ADRIEN MB CS LA CLUSAZ 50.04 52.01 1:42.05 144.52
53 130 21/U21 FFS2686714 2001 BOGEAT TOM MB ANNECY SEMNO 49.66 52.42 1:42.08 144.84
54 154 22/U21 FFS2639771 2000 ROUSSY MATHIS MB SC GD BORNAN 50.66 51.53 1:42.19 146.00
55 129 1/Mast-M FFS2670992 1972 TETAZ JOEL MB CLUSES COMPE 50.24 52.07 1:42.31 147.28
56 131 25/U18 FFS2671577 2003 DOMARADZKI REMI MB ASO NTN-SNR 49.87 52.56 1:42.43 148.55
57 104 26/U18 FFS2656044 2003 MISSILIER BENOIT MB ASO NTN-SNR 50.70 51.78 1:42.48 149.08
58 72 27/U18 FFS2656513 2002 MATHIEU KIERAN MB ANNECY SEMNO 51.53 50.98 1:42.51 149.40
59 113 28/U18 FFS2656266 2003 BOUVIER ABILIO MB ASO NTN-SNR 50.24 52.29 1:42.53 149.61
60 105 29/U18 FFS2665830 2002 BLANC GARIN LOUIS MB CS MANIGOD 50.10 52.44 1:42.54 149.72
61 144 30/U18 FFS2652320 2002 DUPONT ALEXANDRE MB SEYTHENEX 50.39 52.21 1:42.60 150.35
62 153 9/U30 FFS2636688 1997 BIANCO MATTHIEU MB SC THOLLON 50.61 52.06 1:42.67 151.10
63 162 31/U18 FFS2658851 2003 DUGGAN LEONARD MB ANNECY SEMNO 50.73 51.96 1:42.69 151.31
64 163 10/U30 FFS2650668 1993 MORENO JULIEN DA CHAMROUSSE S 51.74 51.20 1:42.94 153.96
65 109 32/U18 FFS2656508 2003 GONIN MAXENCE MB ANNECY SEMNO 50.33 52.74 1:43.07 155.34
66 79 23/U21 FFS2643625 2001 NOEL NATHAN MB CS MANIGOD 50.44 52.68 1:43.12 155.87
67 136 33/U18 FFS2656161 2003 BONVALOT EVAN MB CS LA CLUSAZ 50.29 53.01 1:43.30 157.78
68 127 11/U30 FFS2677623 1998 DANEL REMY MB ANNECY SEMNO 50.73 52.71 1:43.44 159.27
69 147 34/U18 FFS2700442 2003 CAMPOY ESTEBAN MB CS LA CLUSAZ 51.57 51.92 1:43.49 159.80
70 138 35/U18 FFS2666168 2003 BOQUET LOUIS MB ESF CLUSAZ ( 51.65 51.92 1:43.57 160.64
71 140 12/U30 FFS2700623 1991 GIRARD BARRET PIERRE ANDR MB CS LA CLUSAZ 51.66 51.98 1:43.64 161.39
72 141 13/U30 FFS2633846 1994 DAULLE JEAN BAPTISTE MB SC CONTAMINE 51.27 52.64 1:43.91 164.25
73 83 36/U18 FFS2652723 2002 GOUTARD ELIOTT MB CS MANIGOD 49.20 54.85 1:44.05 165.74
74 86 37/U18 FFS2654427 2003 BLANC GARIN ALEC MB CS MANIGOD 50.39 53.74 1:44.13 166.59
75 120 14/U30 FFS2623895 1997 MONGELLAZ ARTHUR MB CS LA CLUSAZ 51.94 52.20 1:44.14 166.69
76 149 38/U18 FFS2695845 2002 PICARONIE ROBIN MB ESF CLUSAZ ( 50.94 53.50 1:44.44 169.88
77 137 39/U18 FFS2684069 2003 ROLS KENNY MB CS ANNECY VX 52.62 53.37 1:45.99 186.32
78 125 40/U18 FFS2654426 2003 BARONE ALEXIS MB CS MANIGOD 51.01 55.66 1:46.67 193.54
79 157 24/U21 FFS2687736 2001 TOCHON FERDOLLET MARTIN MB ANNECY SEMNO 51.01 57.63 1:48.64 214.44
Abandons
71 FFS2646111 2001 ANTHOINE MILHOMME KEVIN MB SC GD BORNAN 49.37
133 FFS2684962 2003 AKELIAN THIBAULT MB ASO NTN-SNR 49.90
Non partants
61 FFS2645514 2001 PEDRINI MATTEO MB SC GD BORNAN 48.13
82 FFS2649421 2003 AVENT SEBASTIEN MB LES HOUCHES
91 FFS2634388 1999 MONVOISIN CHARLIE MB SC CARROZ 50.31
102 FFS2695410 1991 ROUX TRISTAN MB CS LA CLUSAZ
122 FFS2654428 2003 DE WAILLY JULES MB CS MANIGOD
139 FFS2631814 2000 FAVRE ALEXANDRE MB CS LA CLUSAZ
146 FFS2665871 1997 BALLANFAT JULES MB CS LA CLUSAZ
148 FFS2682116 2001 DRUEL TANGUY MB ANNECY SEMNO
152 FFS2678672 2003 TANGUY YOANN MB COMP SEVRIER